Time;durP1;ratioP1;P1;durP2;ratioP2;P2;SDS_P1;SDS_P2;PMS_P1;PMS_P2;Temp;Humidity;BMP_temperature;BMP_pressure;BME280_temperature;BME280_humidity;BME280_pressure;Samples;Min_cycle;Max_cycle;Signal;HPM_P1;HPM_P2
2022/05/22 00:01:28;;;;;;;;;;;;;;;21.82;36.51;99511.91;4447182;32;33436;-67
2022/05/22 00:03:56;;;;;;;;;;;;;;;22.04;36.10;99510.88;4450453;32;33528;-66
2022/05/22 00:06:23;;;;;;;;;;;;;;;22.03;36.17;99509.19;4450012;32;35699;-67
2022/05/22 00:08:51;;;;;;;;;;;;;;;22.03;35.98;99511.91;4451293;32;33082;-69
2022/05/22 00:11:18;;;;;;;;;;;;;;;22.08;36.30;99509.44;4444767;32;34331;-66
2022/05/22 00:13:46;;;;;;;;;;;;;;;22.02;36.12;99502.06;4437903;32;32583;-69
2022/05/22 00:19:00;;;;;;;;;;;;;;;21.74;36.22;99501.12;4450711;32;35395;-67
2022/05/22 00:21:28;;;;;;;;;;;;;;;21.72;36.74;99497.75;4446789;32;35328;-67
2022/05/22 00:23:56;;;;;;;;;;;;;;;21.91;36.71;99497.13;4436307;32;33709;-66
2022/05/22 00:26:24;;;;;;;;;;;;;;;21.76;36.47;99486.28;4444819;32;33007;-68
2022/05/22 00:28:51;;;;;;;;;;;;;;;21.80;36.23;99486.75;4448832;32;35186;-68
2022/05/22 00:31:19;;;;;;;;;;;;;;;21.56;36.68;99485.22;4440850;32;33066;-65
2022/05/22 00:33:47;;;;;;;;;;;;;;;21.66;36.53;99479.47;4437741;32;33459;-67
2022/05/22 00:36:14;;;;;;;;;;;;;;;21.63;36.48;99484.25;4445932;32;34078;-66
2022/05/22 00:38:42;;;;;;;;;;;;;;;21.38;36.95;99480.22;4437844;32;34848;-67
2022/05/22 00:41:10;;;;;;;;;;;;;;;21.15;37.38;99481.16;4441505;32;34369;-66
2022/05/22 00:43:40;;;;;;;;;;;;;;;21.11;37.96;99479.81;4440443;32;34281;-67
2022/05/22 00:46:11;;;;;;;;;;;;;;;20.81;38.10;99486.31;4440485;32;33786;-69
2022/05/22 00:48:43;;;;;;;;;;;;;;;20.97;37.80;99488.84;4442160;32;33650;-68
2022/05/22 00:51:15;;;;;;;;;;;;;;;20.93;37.98;99484.81;4448164;32;33114;-67
2022/05/22 00:53:46;;;;;;;;;;;;;;;20.78;38.29;99492.13;4443136;32;34570;-66
2022/05/22 00:56:16;;;;;;;;;;;;;;;20.89;38.08;99494.38;4447753;32;34110;-66
2022/05/22 00:58:45;;;;;;;;;;;;;;;20.84;38.22;99491.37;4444353;32;33014;-66
2022/05/22 01:01:13;;;;;;;;;;;;;;;21.04;37.88;99488.94;4444627;32;37305;-69
2022/05/22 01:03:43;;;;;;;;;;;;;;;21.15;37.56;99492.03;4449589;32;32399;-66
2022/05/22 01:06:15;;;;;;;;;;;;;;;21.08;37.78;99485.63;4449441;32;32888;-65
2022/05/22 01:08:47;;;;;;;;;;;;;;;21.10;37.50;99480.84;4449980;32;34226;-66
2022/05/22 01:11:18;;;;;;;;;;;;;;;20.98;37.75;99478.81;4446916;32;35132;-66
2022/05/22 01:13:50;;;;;;;;;;;;;;;21.05;38.03;99483.28;4447505;32;33551;-67
2022/05/22 01:16:19;;;;;;;;;;;;;;;20.97;37.98;99477.13;4443670;32;34020;-66
2022/05/22 01:18:50;;;;;;;;;;;;;;;20.96;37.72;99469.97;4446688;32;33490;-68
2022/05/22 01:21:20;;;;;;;;;;;;;;;21.08;37.42;99482.91;4443944;32;33111;-68
2022/05/22 01:23:50;;;;;;;;;;;;;;;21.13;37.27;99480.47;4438133;32;32687;-68
2022/05/22 01:26:21;;;;;;;;;;;;;;;21.06;37.79;99476.84;4446891;32;32793;-67
2022/05/22 01:28:52;;;;;;;;;;;;;;;20.83;37.83;99479.62;4448629;32;34464;-67
2022/05/22 01:31:22;;;;;;;;;;;;;;;21.02;37.58;99477.38;4444405;32;34546;-66
2022/05/22 01:33:51;;;;;;;;;;;;;;;20.97;37.57;99471.69;4435433;32;34484;-65
2022/05/22 01:36:19;;;;;;;;;;;;;;;21.04;37.61;99475.34;4441486;32;35810;-67
2022/05/22 01:38:50;;;;;;;;;;;;;;;21.15;37.82;99472.12;4435079;32;33917;-68
2022/05/22 01:41:19;;;;;;;;;;;;;;;21.18;37.45;99471.72;4441666;32;34112;-67
2022/05/22 01:43:48;;;;;;;;;;;;;;;21.02;37.20;99470.06;4445251;32;33724;-66
2022/05/22 01:46:18;;;;;;;;;;;;;;;21.13;37.43;99475.03;4441998;32;34136;-67
2022/05/22 01:48:50;;;;;;;;;;;;;;;21.25;37.26;99479.97;4448628;32;35149;-66
2022/05/22 01:51:20;;;;;;;;;;;;;;;21.28;36.95;99472.28;4442460;32;35103;-67
2022/05/22 01:53:49;;;;;;;;;;;;;;;21.24;36.53;99468.25;4446177;32;33400;-65
2022/05/22 01:56:19;;;;;;;;;;;;;;;21.07;36.96;99470.34;4443008;32;33251;-66
2022/05/22 01:58:49;;;;;;;;;;;;;;;20.92;37.16;99474.94;4450143;32;33988;-66
2022/05/22 02:01:23;;;;;;;;;;;;;;;20.99;37.05;99480.47;4443474;32;33465;-66
2022/05/22 02:03:52;;;;;;;;;;;;;;;20.87;37.32;99480.13;4449632;32;32284;-67
2022/05/22 02:06:29;;;;;;;;;;;;;;;21.13;36.46;99466.87;4448971;32;34150;-66
2022/05/22 02:09:02;;;;;;;;;;;;;;;21.21;36.33;99463.19;4445989;32;34543;-65
2022/05/22 02:11:34;;;;;;;;;;;;;;;21.24;36.29;99470.97;4445329;32;35565;-64
2022/05/22 02:14:03;;;;;;;;;;;;;;;21.07;36.50;99472.22;4445002;32;35348;-67
2022/05/22 02:16:36;;;;;;;;;;;;;;;21.24;36.33;99464.69;4440745;32;33231;-68
2022/05/22 02:19:14;;;;;;;;;;;;;;;20.76;37.30;99464.25;4433835;32;33601;-64
2022/05/22 02:21:45;;;;;;;;;;;;;;;20.86;37.24;99465.66;4444228;32;33428;-66
2022/05/22 02:24:16;;;;;;;;;;;;;;;21.00;37.08;99465.88;4440405;32;34592;-66
2022/05/22 02:26:47;;;;;;;;;;;;;;;20.76;37.51;99456.09;4442174;32;34094;-68
2022/05/22 02:29:16;;;;;;;;;;;;;;;20.67;38.15;99469.81;4437799;32;33666;-67
2022/05/22 02:31:46;;;;;;;;;;;;;;;20.86;37.59;99454.78;4442027;32;33117;-67
2022/05/22 02:34:15;;;;;;;;;;;;;;;21.00;37.49;99460.44;4439906;32;32532;-65
2022/05/22 02:36:44;;;;;;;;;;;;;;;20.53;39.59;99473.34;4436750;32;33058;-66
2022/05/22 02:39:13;;;;;;;;;;;;;;;20.69;38.38;99467.72;4437197;32;34178;-65
2022/05/22 02:41:42;;;;;;;;;;;;;;;20.55;38.36;99476.72;4440434;32;33103;-69
2022/05/22 02:44:13;;;;;;;;;;;;;;;20.30;39.11;99477.97;4450378;32;33461;-66
2022/05/22 02:46:43;;;;;;;;;;;;;;;20.21;39.49;99474.47;4446149;32;33223;-65
2022/05/22 02:49:13;;;;;;;;;;;;;;;20.29;38.93;99465.38;4438822;32;34301;-65
2022/05/22 02:51:43;;;;;;;;;;;;;;;20.13;39.58;99472.66;4443318;32;34281;-68
2022/05/22 02:54:11;;;;;;;;;;;;;;;20.12;39.20;99465.53;4435441;32;33492;-65
2022/05/22 02:56:41;;;;;;;;;;;;;;;19.76;39.51;99468.03;4443186;32;34344;-67
2022/05/22 02:59:11;;;;;;;;;;;;;;;19.06;40.63;99477.03;4443400;32;34258;-65
2022/05/22 03:01:40;;;;;;;;;;;;;;;18.83;40.95;99469.66;4445993;32;34517;-68
2022/05/22 03:04:17;;;;;;;;;;;;;;;19.07;40.54;99476.03;4447013;32;32262;-65
2022/05/22 03:06:57;;;;;;;;;;;;;;;18.54;42.00;99474.78;4443044;32;33103;-65
2022/05/22 03:09:26;;;;;;;;;;;;;;;18.70;40.95;99473.91;4444503;32;33253;-63
2022/05/22 03:11:55;;;;;;;;;;;;;;;18.33;42.72;99475.31;4449329;32;33893;-65
2022/05/22 03:14:23;;;;;;;;;;;;;;;18.60;40.90;99474.09;4443157;32;33387;-66
2022/05/22 03:16:51;;;;;;;;;;;;;;;18.30;41.28;99472.97;4436042;32;33772;-65
2022/05/22 03:19:20;;;;;;;;;;;;;;;18.37;41.19;99474.81;4443337;32;34074;-64
2022/05/22 03:21:50;;;;;;;;;;;;;;;18.22;41.96;99472.97;4443770;32;33235;-74
2022/05/22 03:24:18;;;;;;;;;;;;;;;19.03;39.93;99471.97;4437480;32;33369;-67
2022/05/22 03:26:47;;;;;;;;;;;;;;;18.48;41.08;99468.19;4444904;32;34090;-69
2022/05/22 03:29:16;;;;;;;;;;;;;;;18.82;40.13;99476.09;4448884;32;34482;-68
2022/05/22 03:31:44;;;;;;;;;;;;;;;19.18;39.69;99469.34;4449625;32;34231;-68
2022/05/22 03:34:14;;;;;;;;;;;;;;;19.00;40.65;99467.72;4443616;32;34381;-70
2022/05/22 03:36:42;;;;;;;;;;;;;;;19.06;39.70;99477.88;4445201;32;32823;-68
2022/05/22 03:39:10;;;;;;;;;;;;;;;19.91;38.47;99470.81;4444293;32;33467;-68
2022/05/22 03:41:39;;;;;;;;;;;;;;;19.54;39.94;99480.53;4447600;32;35482;-67
2022/05/22 03:44:07;;;;;;;;;;;;;;;19.75;38.60;99482.63;4435675;32;33751;-67
2022/05/22 03:46:35;;;;;;;;;;;;;;;19.54;38.95;99483.22;4434428;32;34102;-67
2022/05/22 03:49:06;;;;;;;;;;;;;;;19.31;39.59;99484.03;4440016;32;33487;-68
2022/05/22 03:51:36;;;;;;;;;;;;;;;18.90;40.61;99494.19;4442195;32;34314;-69
2022/05/22 03:54:11;;;;;;;;;;;;;;;19.21;40.01;99494.25;4442283;32;33688;-68
2022/05/22 03:56:41;;;;;;;;;;;;;;;19.26;40.08;99491.88;4444837;32;33057;-70
2022/05/22 03:59:15;;;;;;;;;;;;;;;19.35;39.83;99495.38;4442391;32;33138;-67
2022/05/22 04:01:45;;;;;;;;;;;;;;;18.55;41.20;99495.44;4447790;32;33574;-67
2022/05/22 04:04:14;;;;;;;;;;;;;;;19.36;39.88;99498.94;4445630;32;32386;-69
2022/05/22 04:06:44;;;;;;;;;;;;;;;19.58;39.86;99500.84;4436828;32;35037;-68
2022/05/22 04:09:14;;;;;;;;;;;;;;;20.04;38.64;99505.53;4442577;32;34165;-69
2022/05/22 04:11:48;;;;;;;;;;;;;;;19.51;39.66;99506.16;4441865;32;34296;-69
2022/05/22 04:14:17;;;;;;;;;;;;;;;19.52;39.62;99507.84;4450795;32;33647;-68
2022/05/22 04:16:49;;;;;;;;;;;;;;;19.92;39.02;99513.25;4446414;32;32920;-66
2022/05/22 04:19:17;;;;;;;;;;;;;;;19.90;39.45;99501.69;4440791;32;33852;-69
2022/05/22 04:21:46;;;;;;;;;;;;;;;19.41;40.25;99508.25;4449982;32;35225;-69
2022/05/22 04:27:05;;;;;;;;;;;;;;;19.48;42.22;99514.66;4443492;32;33234;-68
2022/05/22 04:29:35;;;;;;;;;;;;;;;19.49;40.34;99523.66;4436804;32;33010;-68
2022/05/22 04:32:05;;;;;;;;;;;;;;;19.31;40.90;99515.75;4439195;32;33997;-68
2022/05/22 04:34:33;;;;;;;;;;;;;;;19.29;41.58;99515.94;4445422;32;33365;-69
2022/05/22 04:37:04;;;;;;;;;;;;;;;19.35;41.08;99514.38;4448695;32;33852;-70
2022/05/22 04:39:35;;;;;;;;;;;;;;;18.84;41.54;99509.34;4435764;32;31856;-70
2022/05/22 04:42:09;;;;;;;;;;;;;;;19.26;41.38;99516.31;4435784;32;33973;-67
2022/05/22 04:44:37;;;;;;;;;;;;;;;19.11;41.53;99515.34;4443380;32;33223;-70
2022/05/22 04:47:09;;;;;;;;;;;;;;;19.53;40.50;99512.25;4444262;32;33325;-67
2022/05/22 04:49:37;;;;;;;;;;;;;;;19.55;40.85;99514.81;4440111;32;35203;-70
2022/05/22 04:52:06;;;;;;;;;;;;;;;19.02;41.58;99517.22;4446299;32;33718;-71
2022/05/22 04:54:34;;;;;;;;;;;;;;;19.73;40.40;99518.09;4446438;32;33540;-67
2022/05/22 04:57:03;;;;;;;;;;;;;;;20.02;40.54;99517.41;4446226;32;35461;-69
2022/05/22 04:59:32;;;;;;;;;;;;;;;19.81;40.38;99519.06;4442315;32;34248;-66
2022/05/22 05:02:01;;;;;;;;;;;;;;;19.70;40.69;99518.47;4442621;32;35162;-72
2022/05/22 05:04:29;;;;;;;;;;;;;;;19.66;40.59;99514.41;4448932;32;33378;-69
2022/05/22 05:07:03;;;;;;;;;;;;;;;19.99;40.48;99509.59;4444773;32;34434;-67
2022/05/22 05:09:36;;;;;;;;;;;;;;;20.09;39.94;99513.94;4446650;32;33654;-68
2022/05/22 05:12:09;;;;;;;;;;;;;;;19.71;40.66;99508.44;4444685;32;33465;-68
2022/05/22 05:14:38;;;;;;;;;;;;;;;20.16;39.92;99513.06;4446025;32;34646;-68
2022/05/22 05:17:09;;;;;;;;;;;;;;;19.88;40.45;99520.91;4447755;32;33798;-72
2022/05/22 05:19:38;;;;;;;;;;;;;;;20.09;39.77;99516.66;4449039;32;35198;-68
2022/05/22 05:22:07;;;;;;;;;;;;;;;19.89;40.59;99519.03;4434049;32;32954;-69
2022/05/22 05:24:36;;;;;;;;;;;;;;;19.74;40.78;99514.38;4446330;32;33584;-70
2022/05/22 05:27:04;;;;;;;;;;;;;;;19.83;40.44;99522.47;4448295;32;34175;-67
2022/05/22 05:29:54;;;;;;;;;;;;;;;19.03;42.65;99520.78;4441079;32;32788;-67
2022/05/22 05:32:22;;;;;;;;;;;;;;;19.29;42.57;99515.94;4447383;32;34664;-67
2022/05/22 05:35:01;;;;;;;;;;;;;;;20.00;41.01;99515.91;4451129;32;34912;-70
2022/05/22 05:37:30;;;;;;;;;;;;;;;20.19;40.08;99530.84;4447697;32;33755;-67
2022/05/22 05:40:01;;;;;;;;;;;;;;;19.82;40.63;99526.22;4440364;32;33123;-68
2022/05/22 05:42:31;;;;;;;;;;;;;;;20.09;40.19;99531.09;4435021;32;34366;-67
2022/05/22 05:44:59;;;;;;;;;;;;;;;20.07;41.17;99524.19;4435848;32;32362;-67
2022/05/22 05:47:28;;;;;;;;;;;;;;;19.49;41.46;99529.09;4441513;32;33504;-69
2022/05/22 05:49:58;;;;;;;;;;;;;;;20.15;40.35;99530.38;4448721;32;34728;-67
2022/05/22 05:52:27;;;;;;;;;;;;;;;19.86;42.15;99531.09;4443147;32;35199;-65
2022/05/22 05:55:11;;;;;;;;;;;;;;;19.76;41.74;99533.19;4446519;32;33268;-66
2022/05/22 05:57:40;;;;;;;;;;;;;;;19.41;42.00;99532.66;4452829;32;31563;-67
2022/05/22 06:00:09;;;;;;;;;;;;;;;19.67;42.30;99532.38;4444741;32;34470;-68
2022/05/22 06:02:42;;;;;;;;;;;;;;;20.42;40.86;99539.00;4443427;32;34500;-67
2022/05/22 06:05:12;;;;;;;;;;;;;;;20.28;40.55;99537.06;4441117;32;32667;-68
2022/05/22 06:07:40;;;;;;;;;;;;;;;20.10;41.01;99532.81;4435466;32;33756;-69
2022/05/22 06:10:11;;;;;;;;;;;;;;;20.15;40.73;99522.22;4444142;32;33662;-69
2022/05/22 06:12:46;;;;;;;;;;;;;;;19.57;41.83;99517.31;4446190;32;34581;-67
2022/05/22 06:15:22;;;;;;;;;;;;;;;20.27;41.19;99519.09;4433126;32;32583;-67
2022/05/22 06:17:54;;;;;;;;;;;;;;;20.60;40.42;99519.66;4443089;32;33077;-68
2022/05/22 06:20:23;;;;;;;;;;;;;;;20.02;40.69;99522.81;4435463;32;34339;-68
2022/05/22 06:22:51;;;;;;;;;;;;;;;20.04;41.49;99521.81;4445791;32;33254;-67
2022/05/22 06:25:25;;;;;;;;;;;;;;;20.41;40.09;99534.56;4445323;32;33725;-67
2022/05/22 06:27:54;;;;;;;;;;;;;;;20.22;40.69;99525.06;4445612;32;34104;-67
2022/05/22 06:30:24;;;;;;;;;;;;;;;19.95;41.59;99529.16;4440029;32;34856;-67
2022/05/22 06:32:53;;;;;;;;;;;;;;;19.99;41.33;99522.34;4433603;32;32937;-67
2022/05/22 06:35:22;;;;;;;;;;;;;;;20.12;41.01;99527.19;4434729;32;35309;-67
2022/05/22 06:37:50;;;;;;;;;;;;;;;20.39;40.41;99515.75;4444960;32;34942;-66
2022/05/22 06:40:19;;;;;;;;;;;;;;;20.34;40.04;99520.03;4448492;32;35384;-68
2022/05/22 06:42:48;;;;;;;;;;;;;;;20.60;40.12;99515.06;4443007;32;34213;-67
2022/05/22 06:45:19;;;;;;;;;;;;;;;19.86;41.57;99524.81;4446369;32;31974;-69
2022/05/22 06:47:47;;;;;;;;;;;;;;;20.05;40.28;99526.22;4444986;32;33761;-68
2022/05/22 06:50:19;;;;;;;;;;;;;;;20.36;39.88;99528.87;4435809;32;35485;-68
2022/05/22 06:52:48;;;;;;;;;;;;;;;20.27;39.63;99524.53;4435160;32;34178;-68
2022/05/22 06:55:17;;;;;;;;;;;;;;;20.33;39.92;99529.22;4439927;32;32097;-67
2022/05/22 06:57:45;;;;;;;;;;;;;;;20.36;39.80;99520.72;4443216;32;32793;-69
2022/05/22 07:00:18;;;;;;;;;;;;;;;20.57;39.29;99520.03;4448326;32;34404;-68
2022/05/22 07:02:57;;;;;;;;;;;;;;;20.69;39.41;99508.50;4438198;32;34079;-68
2022/05/22 07:05:26;;;;;;;;;;;;;;;20.35;39.92;99519.00;4433441;32;33606;-68
2022/05/22 07:07:55;;;;;;;;;;;;;;;20.97;39.69;99502.44;4441562;32;34081;-68
2022/05/22 07:11:38;;;;;;;;;;;;;;;20.64;39.43;99510.97;4446897;32;34166;-67
2022/05/22 07:13:17;;;;;;;;;;;;;;;20.91;38.95;99511.34;4440658;32;35147;-67
2022/05/22 07:16:04;;;;;;;;;;;;;;;21.23;38.06;99495.69;4445834;32;32361;-69
2022/05/22 07:18:55;;;;;;;;;;;;;;;20.87;39.54;99502.72;4449283;32;34002;-68
2022/05/22 07:21:32;;;;;;;;;;;;;;;21.04;39.09;99505.25;4449345;32;34575;-68
2022/05/22 07:24:03;;;;;;;;;;;;;;;21.06;39.97;99506.75;4440331;32;34383;-68
2022/05/22 07:26:37;;;;;;;;;;;;;;;21.62;38.26;99498.91;4447871;32;33177;-68
2022/05/22 07:29:15;;;;;;;;;;;;;;;21.30;39.06;99496.59;4448307;32;32930;-69
2022/05/22 07:31:56;;;;;;;;;;;;;;;21.56;36.86;99485.22;4450804;32;35223;-67
2022/05/22 07:34:32;;;;;;;;;;;;;;;21.71;36.90;99488.75;4448041;32;33256;-68
2022/05/22 07:37:10;;;;;;;;;;;;;;;21.86;37.58;99488.66;4444591;32;33325;-67
2022/05/22 07:39:49;;;;;;;;;;;;;;;21.70;37.47;99492.53;4441821;32;33927;-68
2022/05/22 07:42:27;;;;;;;;;;;;;;;21.94;37.46;99491.28;4449539;32;33578;-67
2022/05/22 07:45:10;;;;;;;;;;;;;;;21.46;36.67;99490.13;4449810;32;33938;-67
2022/05/22 07:47:52;;;;;;;;;;;;;;;22.07;35.96;99479.66;4452311;32;32566;-69
2022/05/22 07:50:30;;;;;;;;;;;;;;;21.91;36.86;99485.38;4450333;32;33236;-67
2022/05/22 07:53:12;;;;;;;;;;;;;;;21.53;35.94;99488.31;4448114;32;34251;-68
2022/05/22 07:55:47;;;;;;;;;;;;;;;21.90;35.38;99475.53;4450506;32;34217;-68
2022/05/22 07:58:28;;;;;;;;;;;;;;;21.75;35.79;99478.31;4448956;32;33177;-67
2022/05/22 08:01:02;;;;;;;;;;;;;;;21.66;35.71;99477.56;4446895;32;33232;-69
2022/05/22 08:03:43;;;;;;;;;;;;;;;22.42;34.73;99469.72;4443167;32;33569;-68
2022/05/22 08:06:20;;;;;;;;;;;;;;;22.68;33.82;99469.06;4447035;32;35372;-67
2022/05/22 08:08:59;;;;;;;;;;;;;;;22.26;34.71;99470.03;4440260;32;32321;-69
2022/05/22 08:11:43;;;;;;;;;;;;;;;22.12;34.64;99469.03;4447642;32;34098;-69
2022/05/22 08:14:22;;;;;;;;;;;;;;;22.20;34.05;99468.06;4441857;32;34112;-68
2022/05/22 08:17:06;;;;;;;;;;;;;;;22.52;33.20;99459.31;4443137;32;34909;-69
2022/05/22 08:19:51;;;;;;;;;;;;;;;22.05;32.82;99451.75;4451585;32;32510;-69
2022/05/22 08:22:28;;;;;;;;;;;;;;;21.42;34.04;99465.16;4446220;32;33276;-68
2022/05/22 08:25:07;;;;;;;;;;;;;;;21.73;35.00;99456.69;4450649;32;34262;-70
2022/05/22 08:27:48;;;;;;;;;;;;;;;22.11;33.32;99459.16;4450123;32;34552;-68
2022/05/22 08:30:32;;;;;;;;;;;;;;;21.79;34.29;99455.91;4436940;32;32654;-68
2022/05/22 08:33:10;;;;;;;;;;;;;;;21.73;34.67;99453.13;4445290;32;35336;-67
2022/05/22 08:35:48;;;;;;;;;;;;;;;22.01;33.40;99447.75;4449211;32;34271;-69
2022/05/22 08:38:22;;;;;;;;;;;;;;;22.20;33.25;99449.00;4449887;32;34257;-68
2022/05/22 08:40:57;;;;;;;;;;;;;;;21.35;34.72;99443.31;4444626;32;32347;-69
2022/05/22 08:43:48;;;;;;;;;;;;;;;21.53;35.14;99447.47;4439961;32;33177;-67
2022/05/22 08:46:47;;;;;;;;;;;;;;;22.45;34.18;99447.53;4437546;32;32745;-68
2022/05/22 08:49:29;;;;;;;;;;;;;;;22.42;34.23;99445.19;4443323;32;31975;-68
2022/05/22 08:52:12;;;;;;;;;;;;;;;21.57;35.08;99437.87;4442644;32;33536;-68
2022/05/22 08:55:05;;;;;;;;;;;;;;;22.32;34.11;99431.91;4440040;32;34492;-68
2022/05/22 09:00:47;;;;;;;;;;;;;;;21.94;34.04;99423.16;4443265;32;33345;-68
2022/05/22 09:03:28;;;;;;;;;;;;;;;22.07;33.31;99415.09;4440476;32;33195;-70
2022/05/22 09:06:05;;;;;;;;;;;;;;;21.76;34.10;99425.50;4446319;32;32722;-68
2022/05/22 09:08:40;;;;;;;;;;;;;;;22.23;31.62;99421.34;4435550;32;32973;-69
2022/05/22 09:11:27;;;;;;;;;;;;;;;21.91;32.63;99417.28;4443854;32;34446;-67
2022/05/22 09:14:09;;;;;;;;;;;;;;;22.51;32.93;99403.09;4443589;32;33420;-69
2022/05/22 09:16:48;;;;;;;;;;;;;;;22.76;31.74;99406.19;4448435;32;33855;-67
2022/05/22 09:19:24;;;;;;;;;;;;;;;22.61;31.86;99410.06;4452000;32;32896;-70
2022/05/22 09:22:17;;;;;;;;;;;;;;;22.72;31.70;99409.50;4448242;32;33023;-69
2022/05/22 09:25:20;;;;;;;;;;;;;;;23.02;30.77;99408.22;4438950;32;33722;-68
2022/05/22 09:27:55;;;;;;;;;;;;;;;22.79;30.78;99391.25;4449060;32;32980;-68
2022/05/22 09:30:34;;;;;;;;;;;;;;;22.99;30.77;99397.72;4443880;32;33993;-69
2022/05/22 09:33:22;;;;;;;;;;;;;;;23.43;30.84;99396.38;4444528;32;33212;-69
2022/05/22 09:36:18;;;;;;;;;;;;;;;23.63;30.68;99384.66;4440423;32;33389;-68
2022/05/22 09:39:23;;;;;;;;;;;;;;;23.76;29.50;99389.34;4441797;32;32487;-68
2022/05/22 09:42:02;;;;;;;;;;;;;;;23.85;30.30;99379.84;4443407;32;35138;-68
2022/05/22 09:44:56;;;;;;;;;;;;;;;23.66;30.45;99392.44;4452995;32;36191;-68
2022/05/22 09:47:39;;;;;;;;;;;;;;;24.18;29.92;99393.53;4446727;32;33364;-69
2022/05/22 09:50:34;;;;;;;;;;;;;;;23.88;29.11;99385.78;4447606;32;33035;-70
2022/05/22 09:53:13;;;;;;;;;;;;;;;23.92;28.97;99391.66;4446319;32;33909;-68
2022/05/22 09:55:47;;;;;;;;;;;;;;;24.22;28.06;99378.38;4441599;32;33897;-68
2022/05/22 09:58:20;;;;;;;;;;;;;;;23.61;29.41;99384.03;4444613;32;33718;-70
2022/05/22 10:00:53;;;;;;;;;;;;;;;23.57;30.12;99377.28;4445805;32;33431;-67
2022/05/22 10:03:43;;;;;;;;;;;;;;;23.85;29.00;99374.38;4446829;32;32666;-69
2022/05/22 10:06:19;;;;;;;;;;;;;;;23.38;28.96;99373.47;4437191;32;33291;-68
2022/05/22 10:08:59;;;;;;;;;;;;;;;23.73;28.59;99376.09;4440051;32;33919;-68
2022/05/22 10:11:38;;;;;;;;;;;;;;;23.84;29.14;99379.03;4442401;32;35339;-68
2022/05/22 10:14:31;;;;;;;;;;;;;;;23.96;29.04;99370.22;4439568;32;34351;-69
2022/05/22 10:17:27;;;;;;;;;;;;;;;23.76;29.71;99362.84;4443834;32;34524;-68
2022/05/22 10:20:15;;;;;;;;;;;;;;;24.49;29.36;99356.47;4444135;32;32427;-68
2022/05/22 10:23:04;;;;;;;;;;;;;;;24.37;29.13;99367.22;4434865;32;34033;-69
2022/05/22 10:26:02;;;;;;;;;;;;;;;24.27;28.66;99356.72;4448824;32;33272;-68
2022/05/22 10:28:39;;;;;;;;;;;;;;;24.24;27.76;99357.16;4448390;32;34316;-68
2022/05/22 10:31:17;;;;;;;;;;;;;;;24.75;27.35;99359.16;4434053;32;33656;-69
2022/05/22 10:34:01;;;;;;;;;;;;;;;25.18;26.00;99344.03;4439761;32;34172;-67
2022/05/22 10:36:30;;;;;;;;;;;;;;;25.31;26.73;99335.72;4429306;32;32846;-68
2022/05/22 10:39:06;;;;;;;;;;;;;;;25.05;27.39;99329.31;4437800;32;33279;-67
2022/05/22 10:44:40;;;;;;;;;;;;;;;25.51;27.32;99339.16;4441571;32;34060;-67
2022/05/22 10:47:08;;;;;;;;;;;;;;;25.55;26.87;99331.34;4436314;32;34477;-66
2022/05/22 10:49:36;;;;;;;;;;;;;;;25.09;26.77;99337.94;4434650;32;35731;-68
2022/05/22 10:52:04;;;;;;;;;;;;;;;24.73;27.07;99336.63;4440864;32;32234;-67
2022/05/22 10:54:33;;;;;;;;;;;;;;;24.61;27.22;99341.91;4438017;32;33048;-67
2022/05/22 10:57:12;;;;;;;;;;;;;;;24.80;26.94;99337.44;4441553;32;34264;-67
2022/05/22 10:59:40;;;;;;;;;;;;;;;24.50;27.43;99344.50;4440858;32;34145;-68
2022/05/22 11:02:15;;;;;;;;;;;;;;;24.43;28.14;99349.12;4435907;32;32549;-68
2022/05/22 11:04:44;;;;;;;;;;;;;;;24.63;27.17;99355.41;4441392;32;35067;-68
2022/05/22 11:07:13;;;;;;;;;;;;;;;25.27;26.84;99354.50;4445549;32;33651;-68
2022/05/22 11:09:45;;;;;;;;;;;;;;;25.29;26.93;99351.53;4439001;32;34296;-68
2022/05/22 11:12:14;;;;;;;;;;;;;;;25.17;26.67;99362.38;4438394;32;33557;-67
2022/05/22 11:14:42;;;;;;;;;;;;;;;25.75;26.31;99351.22;4445111;32;34199;-66
2022/05/22 11:17:16;;;;;;;;;;;;;;;24.95;26.95;99353.59;4445129;32;34295;-68
2022/05/22 11:19:45;;;;;;;;;;;;;;;24.85;27.77;99345.00;4446758;32;34432;-68
2022/05/22 11:22:20;;;;;;;;;;;;;;;24.63;27.43;99338.97;4440690;32;34632;-66
2022/05/22 11:24:50;;;;;;;;;;;;;;;25.53;26.17;99325.25;4443274;32;34925;-69
2022/05/22 11:27:21;;;;;;;;;;;;;;;25.88;26.33;99322.06;4437021;32;33020;-67
2022/05/22 11:29:53;;;;;;;;;;;;;;;25.45;27.23;99323.63;4439559;32;33597;-67
2022/05/22 11:32:33;;;;;;;;;;;;;;;25.34;27.07;99321.59;4439502;32;32057;-67
2022/05/22 11:35:05;;;;;;;;;;;;;;;25.19;27.43;99332.84;4445240;32;34118;-65
2022/05/22 11:37:41;;;;;;;;;;;;;;;24.67;27.14;99333.91;4445557;32;33275;-67
2022/05/22 11:40:19;;;;;;;;;;;;;;;24.65;27.26;99320.44;4439139;32;34626;-70
2022/05/22 11:42:47;;;;;;;;;;;;;;;24.32;28.30;99315.06;4439122;32;32429;-69
2022/05/22 11:45:25;;;;;;;;;;;;;;;24.72;27.73;99314.94;4442938;32;32954;-70
2022/05/22 11:48:12;;;;;;;;;;;;;;;25.35;27.17;99308.75;4436350;32;35108;-67
2022/05/22 11:50:55;;;;;;;;;;;;;;;25.27;27.59;99312.59;4440825;32;35367;-70
2022/05/22 11:53:26;;;;;;;;;;;;;;;25.01;27.83;99302.63;4436897;32;33373;-68
2022/05/22 11:56:06;;;;;;;;;;;;;;;24.67;28.54;99306.56;4438717;32;34012;-68
2022/05/22 11:58:43;;;;;;;;;;;;;;;25.34;27.12;99299.69;4439363;32;34002;-69
2022/05/22 12:01:15;;;;;;;;;;;;;;;25.19;26.53;99297.25;4445630;32;35526;-69
2022/05/22 12:03:55;;;;;;;;;;;;;;;25.28;27.21;99290.44;4442242;32;33564;-67
2022/05/22 12:06:27;;;;;;;;;;;;;;;25.08;27.32;99276.87;4444195;32;33248;-67
2022/05/22 12:09:15;;;;;;;;;;;;;;;24.81;27.79;99281.62;4436723;32;33067;-68
2022/05/22 12:11:46;;;;;;;;;;;;;;;24.59;26.71;99278.38;4446369;32;35432;-69
2022/05/22 12:14:22;;;;;;;;;;;;;;;24.46;27.36;99285.78;4443310;32;33782;-67
2022/05/22 12:17:03;;;;;;;;;;;;;;;24.61;27.22;99270.78;4443685;32;33977;-67
2022/05/22 12:19:33;;;;;;;;;;;;;;;24.76;27.33;99275.16;4435599;32;33418;-67
2022/05/22 12:22:05;;;;;;;;;;;;;;;25.29;27.14;99266.63;4444370;32;34741;-67
2022/05/22 12:25:02;;;;;;;;;;;;;;;25.28;28.15;99265.81;4447410;32;32765;-70
2022/05/22 12:27:32;;;;;;;;;;;;;;;25.12;26.84;99269.06;4431874;32;32563;-67
2022/05/22 12:30:07;;;;;;;;;;;;;;;25.27;27.35;99274.25;4448075;32;33734;-68
2022/05/22 12:32:37;;;;;;;;;;;;;;;24.75;28.16;99276.19;4452031;32;34199;-68
2022/05/22 12:35:06;;;;;;;;;;;;;;;24.77;27.90;99257.66;4444317;32;35257;-68
2022/05/22 12:37:42;;;;;;;;;;;;;;;24.49;28.57;99274.41;4447884;32;34303;-70
2022/05/22 12:40:36;;;;;;;;;;;;;;;24.64;28.37;99272.25;4444687;32;34113;-68
2022/05/22 12:43:07;;;;;;;;;;;;;;;24.78;27.74;99262.06;4443328;32;35152;-69
2022/05/22 12:45:35;;;;;;;;;;;;;;;25.05;27.28;99269.09;4447413;32;34309;-68
2022/05/22 12:48:14;;;;;;;;;;;;;;;24.82;27.18;99261.44;4451483;32;34036;-68
2022/05/22 12:50:42;;;;;;;;;;;;;;;25.05;26.92;99260.03;4436751;32;35163;-68
2022/05/22 12:53:18;;;;;;;;;;;;;;;24.90;27.81;99259.50;4437466;32;34547;-68
2022/05/22 12:55:46;;;;;;;;;;;;;;;25.04;27.83;99250.12;4446606;32;33238;-70
2022/05/22 12:58:49;;;;;;;;;;;;;;;24.93;27.83;99248.09;4448627;32;34146;-67
2022/05/22 13:01:26;;;;;;;;;;;;;;;24.38;28.56;99257.59;4401971;32;33094;-68
2022/05/22 13:04:17;;;;;;;;;;;;;;;24.33;29.04;99253.81;4434606;32;34117;-67
2022/05/22 13:06:54;;;;;;;;;;;;;;;25.15;27.87;99230.28;4440191;32;32460;-68
2022/05/22 13:09:33;;;;;;;;;;;;;;;24.76;28.36;99239.56;4443147;32;33938;-67
2022/05/22 13:12:06;;;;;;;;;;;;;;;24.63;27.96;99251.44;4444473;32;34154;-67
2022/05/22 13:14:40;;;;;;;;;;;;;;;24.42;28.49;99240.78;4448216;32;33980;-70
2022/05/22 13:17:12;;;;;;;;;;;;;;;23.86;29.76;99242.19;4443817;32;34273;-67
2022/05/22 13:19:52;;;;;;;;;;;;;;;23.91;29.64;99242.38;4448449;32;32895;-67
2022/05/22 13:22:39;;;;;;;;;;;;;;;24.74;28.44;99244.41;4451558;32;33176;-67
2022/05/22 13:25:25;;;;;;;;;;;;;;;24.62;29.07;99234.19;4453083;32;34124;-67
2022/05/22 13:27:53;;;;;;;;;;;;;;;24.63;28.59;99230.38;4453965;32;33641;-67
2022/05/22 13:30:22;;;;;;;;;;;;;;;24.63;28.02;99215.87;4455809;32;33825;-69
2022/05/22 13:32:53;;;;;;;;;;;;;;;24.62;28.36;99203.22;4458953;32;35134;-66
2022/05/22 13:35:23;;;;;;;;;;;;;;;24.36;29.57;99215.94;4450945;32;34518;-67